createdAt,value
2022-10-24T00:02:21.054Z,55.42
2022-10-24T00:04:47.459Z,56.04
2022-10-24T00:07:14.172Z,55.53
2022-10-24T00:09:40.583Z,55.26
2022-10-24T00:12:07.291Z,55.99
2022-10-24T00:14:34.816Z,56.10
2022-10-24T00:17:01.213Z,55.56
2022-10-24T00:19:27.587Z,55.43
2022-10-24T00:21:53.942Z,55.49
2022-10-24T00:24:20.329Z,55.36
2022-10-24T00:26:46.725Z,55.58
2022-10-24T00:29:13.372Z,55.23
2022-10-24T00:31:40.370Z,55.59
2022-10-24T00:34:06.692Z,55.28
2022-10-24T00:36:33.196Z,55.35
2022-10-24T00:38:59.551Z,55.24
2022-10-24T00:41:30.784Z,55.58
2022-10-24T00:44:20.449Z,55.23
2022-10-24T00:46:48.915Z,55.66
2022-10-24T00:49:16.845Z,55.89
2022-10-24T00:51:43.777Z,56.04
2022-10-24T00:54:11.085Z,55.64
2022-10-24T00:56:44.581Z,55.44
2022-10-24T00:59:12.696Z,55.57
2022-10-24T01:01:39.759Z,55.54
2022-10-24T01:04:07.189Z,56.21
2022-10-24T01:06:33.516Z,55.70
2022-10-24T01:09:06.971Z,55.55
2022-10-24T01:11:55.052Z,55.59
2022-10-24T01:14:30.552Z,55.64
2022-10-24T01:17:05.089Z,55.94
2022-10-24T01:19:31.410Z,55.75
2022-10-24T01:22:08.031Z,55.35
2022-10-24T01:24:40.770Z,55.63
2022-10-24T01:27:22.154Z,56.71
2022-10-24T01:29:52.421Z,56.30
2022-10-24T01:32:40.436Z,56.08
2022-10-24T01:35:24.055Z,56.17
2022-10-24T01:37:58.093Z,56.33
2022-10-24T01:40:30.502Z,55.70
2022-10-24T01:42:58.757Z,56.59
2022-10-24T01:45:30.633Z,56.03
2022-10-24T01:47:58.323Z,56.15
2022-10-24T01:50:26.088Z,55.92
2022-10-24T01:52:54.329Z,56.00
2022-10-24T01:55:20.843Z,56.64
2022-10-24T01:57:47.194Z,57.42
2022-10-24T02:00:18.730Z,55.84
2022-10-24T02:03:00.102Z,56.15
2022-10-24T02:05:33.153Z,56.10
2022-10-24T02:08:07.779Z,56.14
2022-10-24T02:10:35.701Z,56.02
2022-10-24T02:13:07.688Z,56.03
2022-10-24T02:15:36.849Z,56.35
2022-10-24T02:18:03.455Z,56.09
2022-10-24T02:20:34.950Z,56.39
2022-10-24T02:23:05.947Z,55.77
2022-10-24T02:25:37.514Z,56.15
2022-10-24T02:28:13.036Z,55.98
2022-10-24T02:30:42.426Z,55.65
2022-10-24T02:33:09.654Z,56.18
2022-10-24T02:35:38.055Z,56.06
2022-10-24T02:38:18.006Z,56.10
2022-10-24T02:40:45.278Z,55.86
2022-10-24T02:43:13.378Z,56.28
2022-10-24T02:45:40.146Z,55.74
2022-10-24T02:48:08.703Z,55.75
2022-10-24T02:50:36.133Z,56.10
2022-10-24T02:53:02.563Z,56.24
2022-10-24T02:55:28.964Z,56.17
2022-10-24T02:57:55.364Z,56.09
2022-10-24T03:00:22.527Z,56.74
2022-10-24T03:02:48.891Z,56.55
2022-10-24T03:05:15.239Z,56.23
2022-10-24T03:07:41.571Z,55.76
2022-10-24T03:10:08.079Z,56.60
2022-10-24T03:12:34.436Z,56.59
2022-10-24T03:15:00.783Z,56.44
2022-10-24T03:17:27.134Z,56.47
2022-10-24T03:19:53.465Z,56.39
2022-10-24T03:22:19.832Z,56.12
2022-10-24T03:24:55.212Z,56.69
2022-10-24T03:27:22.024Z,56.52
2022-10-24T03:29:48.385Z,56.37
2022-10-24T03:32:14.789Z,56.58
2022-10-24T03:34:41.211Z,56.25
2022-10-24T03:37:07.556Z,56.24
2022-10-24T03:39:34.469Z,56.54
2022-10-24T03:42:00.819Z,56.67
2022-10-24T03:44:27.276Z,56.31
2022-10-24T03:46:53.616Z,56.11
2022-10-24T03:49:19.977Z,56.52
2022-10-24T03:51:46.332Z,56.30
2022-10-24T03:54:15.252Z,56.13
2022-10-24T03:56:42.528Z,56.91
2022-10-24T03:59:08.857Z,56.33
2022-10-24T04:01:35.337Z,56.78
2022-10-24T04:04:01.904Z,56.55
2022-10-24T04:06:30.305Z,56.71
2022-10-24T04:08:59.857Z,56.32
2022-10-24T04:11:26.257Z,56.11
2022-10-24T04:13:52.874Z,56.56
2022-10-24T04:16:19.751Z,56.25
2022-10-24T04:18:46.274Z,56.24
2022-10-24T04:21:12.866Z,56.74
2022-10-24T04:23:41.237Z,57.12
2022-10-24T04:26:08.297Z,56.60
2022-10-24T04:28:34.701Z,56.56
2022-10-24T04:31:01.044Z,56.32
2022-10-24T04:33:27.409Z,57.08
2022-10-24T04:35:53.817Z,56.66
2022-10-24T04:38:20.457Z,56.83
2022-10-24T04:40:48.898Z,56.62
2022-10-24T04:43:15.238Z,56.96
2022-10-24T04:45:41.614Z,57.36
2022-10-24T04:48:07.967Z,57.39
2022-10-24T04:50:34.348Z,56.72
2022-10-24T04:53:01.782Z,56.31
2022-10-24T04:55:28.803Z,56.80
2022-10-24T04:57:55.194Z,56.30
2022-10-24T05:00:21.671Z,56.12
2022-10-24T05:02:48.111Z,56.94
2022-10-24T05:05:14.502Z,56.52
2022-10-24T05:07:40.850Z,56.26
2022-10-24T05:10:07.459Z,56.48
2022-10-24T05:12:33.859Z,56.36
2022-10-24T05:15:00.247Z,56.30
2022-10-24T05:17:26.651Z,56.16
2022-10-24T05:19:53.203Z,56.53
2022-10-24T05:22:19.538Z,56.22
2022-10-24T05:24:45.886Z,56.30
2022-10-24T05:27:12.211Z,56.57
2022-10-24T05:29:38.744Z,56.92
2022-10-24T05:32:05.351Z,55.94
2022-10-24T05:34:31.924Z,55.87
2022-10-24T05:36:58.460Z,56.30
2022-10-24T05:39:24.955Z,56.26
2022-10-24T05:41:54.599Z,56.88
2022-10-24T05:44:22.039Z,56.66
2022-10-24T05:46:48.540Z,56.76
2022-10-24T05:49:15.097Z,57.11
2022-10-24T05:51:41.609Z,56.40
2022-10-24T05:54:08.118Z,56.12
2022-10-24T05:56:34.921Z,56.47
2022-10-24T05:59:01.428Z,57.27
2022-10-24T06:01:28.037Z,57.07
2022-10-24T06:03:54.628Z,56.70
2022-10-24T06:06:21.343Z,56.85
2022-10-24T06:08:47.795Z,56.88
2022-10-24T06:11:15.432Z,56.61
2022-10-24T06:13:42.003Z,56.90
2022-10-24T06:16:09.383Z,56.49
2022-10-24T06:18:36.445Z,56.49
2022-10-24T06:21:04.176Z,56.91
2022-10-24T06:23:30.700Z,56.51
2022-10-24T06:25:57.317Z,56.64
2022-10-24T06:28:23.818Z,56.32
2022-10-24T06:30:50.890Z,56.59
2022-10-24T06:33:17.388Z,56.63
2022-10-24T06:35:44.124Z,56.80
2022-10-24T06:38:10.632Z,56.70
2022-10-24T06:40:37.612Z,56.91
2022-10-24T06:43:04.090Z,56.57
2022-10-24T06:45:30.609Z,56.60
2022-10-24T06:47:57.321Z,56.60
2022-10-24T06:50:23.997Z,56.51
2022-10-24T06:52:50.550Z,56.30
2022-10-24T06:55:17.109Z,56.30
2022-10-24T06:57:43.805Z,56.10
2022-10-24T07:00:12.246Z,56.26
2022-10-24T07:02:38.769Z,56.31
2022-10-24T07:05:05.501Z,56.17
2022-10-24T07:07:32.019Z,56.17
2022-10-24T07:09:58.533Z,56.47
2022-10-24T07:12:25.610Z,56.25
2022-10-24T07:14:52.212Z,55.78
2022-10-24T07:17:18.732Z,56.04
2022-10-24T07:19:45.210Z,56.03
2022-10-24T07:22:12.069Z,55.66
2022-10-24T07:24:38.559Z,55.71
2022-10-24T07:27:04.920Z,55.72
2022-10-24T07:29:31.505Z,55.83
2022-10-24T07:31:59.616Z,55.54
2022-10-24T07:34:26.012Z,55.66
2022-10-24T07:36:52.419Z,55.72
2022-10-24T07:39:18.871Z,55.46
2022-10-24T07:41:45.427Z,55.35
2022-10-24T07:44:12.196Z,55.40
2022-10-24T07:46:40.462Z,55.46
2022-10-24T07:49:08.054Z,54.80
2022-10-24T07:51:34.494Z,54.25
2022-10-24T07:54:01.002Z,54.62
2022-10-24T07:56:27.536Z,54.95
2022-10-24T07:58:55.129Z,54.40
2022-10-24T08:01:23.926Z,54.53
2022-10-24T08:03:50.403Z,53.89
2022-10-24T08:06:18.567Z,54.16
2022-10-24T08:08:45.289Z,54.25
2022-10-24T08:11:16.063Z,53.41
2022-10-24T08:13:42.626Z,54.21
2022-10-24T08:16:10.489Z,53.72
2022-10-24T08:18:38.869Z,54.17
2022-10-24T08:21:07.498Z,54.09
2022-10-24T08:23:34.853Z,53.88
2022-10-24T08:26:04.434Z,53.15
2022-10-24T08:28:30.820Z,53.81
2022-10-24T08:31:01.715Z,52.75
2022-10-24T08:33:28.617Z,53.61
2022-10-24T08:35:57.363Z,52.92
2022-10-24T08:38:23.803Z,52.18
2022-10-24T08:40:50.380Z,52.43
2022-10-24T08:43:18.083Z,52.60
2022-10-24T08:45:58.218Z,52.72
2022-10-24T08:48:28.971Z,52.31
2022-10-24T08:50:59.810Z,52.93
2022-10-24T08:53:29.383Z,52.83
2022-10-24T08:55:57.075Z,51.86
2022-10-24T08:58:28.863Z,51.36
2022-10-24T09:00:56.985Z,51.61
2022-10-24T09:03:43.938Z,51.20
2022-10-24T09:06:16.932Z,49.77
2022-10-24T09:08:46.811Z,51.33
2022-10-24T09:11:16.769Z,49.45
2022-10-24T09:13:43.200Z,51.60
2022-10-24T09:16:22.786Z,50.96
2022-10-24T09:18:51.450Z,51.68
2022-10-24T09:21:17.962Z,48.80
2022-10-24T09:23:44.738Z,50.47
2022-10-24T09:26:15.869Z,49.76
2022-10-24T09:28:42.363Z,50.75
2022-10-24T09:31:27.243Z,50.59
2022-10-24T09:33:53.914Z,48.58
2022-10-24T09:36:21.379Z,50.32
2022-10-24T09:38:49.212Z,48.99
2022-10-24T09:41:27.255Z,48.29
2022-10-24T09:43:58.988Z,50.71
2022-10-24T09:46:45.496Z,48.89
2022-10-24T09:49:25.598Z,50.66
2022-10-24T09:52:10.970Z,48.54
2022-10-24T09:54:37.436Z,49.45
2022-10-24T09:59:45.843Z,47.90
2022-10-24T10:02:24.924Z,49.25
2022-10-24T10:05:03.623Z,45.11
2022-10-24T10:07:31.718Z,47.86
2022-10-24T10:10:00.175Z,48.09
2022-10-24T10:12:32.743Z,48.22
2022-10-24T10:15:01.043Z,46.99
2022-10-24T10:17:31.069Z,47.80
2022-10-24T10:19:58.318Z,48.13
2022-10-24T10:22:28.863Z,46.23
2022-10-24T10:24:56.788Z,46.83
2022-10-24T10:27:37.072Z,46.16
2022-10-24T10:30:06.299Z,45.96
2022-10-24T10:32:38.013Z,44.72
2022-10-24T10:35:13.616Z,46.31
2022-10-24T10:37:43.450Z,44.57
2022-10-24T10:40:18.846Z,44.75
2022-10-24T10:42:45.656Z,43.38
2022-10-24T10:45:19.348Z,44.85
2022-10-24T10:47:47.287Z,43.01
2022-10-24T10:50:31.773Z,43.75
2022-10-24T10:53:08.316Z,45.30
2022-10-24T10:55:40.791Z,44.87
2022-10-24T10:58:22.484Z,44.64
2022-10-24T11:01:07.536Z,44.68
2022-10-24T11:03:37.074Z,43.00
2022-10-24T11:06:06.472Z,43.52
2022-10-24T11:08:42.625Z,42.98
2022-10-24T11:11:24.762Z,43.71
2022-10-24T11:14:14.471Z,43.89
2022-10-24T11:16:41.769Z,44.47
2022-10-24T11:19:21.185Z,42.79
2022-10-24T11:21:48.261Z,44.59
2022-10-24T11:24:18.460Z,44.05
2022-10-24T11:26:54.552Z,44.33
2022-10-24T11:31:55.681Z,43.09
2022-10-24T11:34:26.889Z,45.33
2022-10-24T11:36:57.037Z,45.71
2022-10-24T11:39:31.407Z,44.97
2022-10-24T11:42:06.348Z,44.56
2022-10-24T11:44:39.241Z,44.38
2022-10-24T11:47:14.745Z,42.69
2022-10-24T11:49:43.711Z,42.80
2022-10-24T11:52:20.002Z,45.11
2022-10-24T11:54:53.403Z,43.85
2022-10-24T11:57:23.382Z,44.17
2022-10-24T12:02:19.666Z,42.23
2022-10-24T12:05:04.733Z,43.17
2022-10-24T12:07:31.209Z,43.31
2022-10-24T12:09:57.594Z,42.24
2022-10-24T12:12:24.105Z,43.83
2022-10-24T12:14:50.541Z,43.85
2022-10-24T12:17:26.045Z,42.89
2022-10-24T12:19:52.711Z,42.80
2022-10-24T12:22:23.917Z,42.09
2022-10-24T12:25:01.722Z,42.86
2022-10-24T12:27:38.975Z,43.98
2022-10-24T12:30:17.502Z,42.89
2022-10-24T12:32:49.045Z,43.21
2022-10-24T12:35:31.555Z,42.89
2022-10-24T12:37:58.696Z,43.66
2022-10-24T12:40:48.638Z,43.06
2022-10-24T12:43:26.591Z,43.15
2022-10-24T12:45:52.959Z,42.47
2022-10-24T12:48:28.401Z,43.46
2022-10-24T12:50:59.426Z,42.73
2022-10-24T12:53:33.387Z,42.15
2022-10-24T12:55:59.756Z,42.24
2022-10-24T12:58:34.293Z,42.61
2022-10-24T13:01:03.717Z,42.57
2022-10-24T13:03:36.086Z,42.09
2022-10-24T13:06:17.031Z,41.91
2022-10-24T13:08:46.500Z,43.32
2022-10-24T13:11:33.236Z,43.00
2022-10-24T13:14:08.092Z,42.57
2022-10-24T13:16:37.339Z,42.58
2022-10-24T13:19:06.435Z,42.16
2022-10-24T13:21:47.392Z,42.82
2022-10-24T13:24:16.715Z,42.17
2022-10-24T13:26:47.729Z,41.83
2022-10-24T13:29:14.164Z,42.04
2022-10-24T13:31:42.640Z,42.36
2022-10-24T13:34:14.204Z,42.30
2022-10-24T13:36:41.297Z,43.01
2022-10-24T13:39:12.121Z,42.71
2022-10-24T13:41:38.738Z,42.68
2022-10-24T13:44:05.132Z,43.18
2022-10-24T13:46:42.139Z,43.42
2022-10-24T13:49:13.443Z,43.05
2022-10-24T13:51:45.755Z,43.56
2022-10-24T13:54:19.875Z,43.69
2022-10-24T13:56:47.179Z,42.03
2022-10-24T13:59:46.153Z,43.26
2022-10-24T14:02:20.272Z,43.08
2022-10-24T14:04:47.369Z,42.28
2022-10-24T14:07:18.465Z,43.57
2022-10-24T14:09:50.047Z,43.36
2022-10-24T14:12:18.496Z,44.19
2022-10-24T14:14:47.132Z,44.50
2022-10-24T14:17:42.924Z,44.65
2022-10-24T14:20:09.774Z,44.82
2022-10-24T14:22:39.756Z,43.73
2022-10-24T14:25:26.900Z,44.45
2022-10-24T14:27:54.565Z,43.38
2022-10-24T14:30:22.657Z,44.53
2022-10-24T14:32:49.196Z,43.86
2022-10-24T14:35:16.179Z,44.51
2022-10-24T14:37:43.285Z,44.98
2022-10-24T14:40:17.679Z,44.61
2022-10-24T14:42:46.423Z,44.59
2022-10-24T14:45:23.077Z,45.27
2022-10-24T14:47:53.668Z,45.32
2022-10-24T14:50:36.838Z,45.25
2022-10-24T14:53:04.522Z,45.27
2022-10-24T14:55:31.346Z,45.56
2022-10-24T14:57:57.865Z,45.48
2022-10-24T15:00:28.934Z,45.64
2022-10-24T15:02:57.862Z,45.58
2022-10-24T15:05:24.532Z,45.45
2022-10-24T15:08:20.299Z,45.71
2022-10-24T15:10:42.457Z,45.36
2022-10-24T15:13:08.831Z,45.63
2022-10-24T15:15:44.114Z,43.76
2022-10-24T15:18:21.865Z,45.19
2022-10-24T15:20:50.038Z,43.95
2022-10-24T15:23:21.209Z,44.81
2022-10-24T15:25:57.305Z,44.93
2022-10-24T15:28:35.678Z,45.14
2022-10-24T15:31:02.074Z,44.40
2022-10-24T15:33:28.559Z,44.32
2022-10-24T15:35:55.832Z,43.23
2022-10-24T15:38:22.211Z,41.88
2022-10-24T15:40:49.026Z,43.13
2022-10-24T15:43:19.434Z,43.16
2022-10-24T15:45:46.442Z,43.85
2022-10-24T15:48:12.910Z,43.23
2022-10-24T15:50:43.675Z,41.29
2022-10-24T15:53:14.782Z,42.90
2022-10-24T15:55:41.166Z,41.98
2022-10-24T15:58:11.198Z,42.91
2022-10-24T16:00:37.734Z,42.53
2022-10-24T16:03:05.670Z,42.51
2022-10-24T16:05:36.322Z,41.71
2022-10-24T16:08:02.995Z,42.78
2022-10-24T16:10:29.417Z,43.63
2022-10-24T16:12:55.847Z,44.06
2022-10-24T16:15:29.734Z,43.52
2022-10-24T16:17:56.187Z,43.33
2022-10-24T16:20:22.580Z,43.65
2022-10-24T16:22:49.495Z,43.64
2022-10-24T16:25:17.679Z,43.75
2022-10-24T16:27:44.413Z,43.49
2022-10-24T16:30:12.052Z,43.74
2022-10-24T16:32:38.588Z,44.15
2022-10-24T16:35:05.359Z,43.85
2022-10-24T16:37:31.787Z,43.71
2022-10-24T16:39:58.587Z,44.04
2022-10-24T16:42:25.139Z,44.19
2022-10-24T16:44:51.756Z,44.13
2022-10-24T16:47:18.259Z,44.33
2022-10-24T16:49:47.646Z,44.24
2022-10-24T16:52:14.059Z,44.74
2022-10-24T16:54:40.532Z,43.14
2022-10-24T16:57:06.922Z,44.16
2022-10-24T16:59:33.353Z,44.02
2022-10-24T17:01:59.953Z,43.03
2022-10-24T17:04:29.082Z,43.71
2022-10-24T17:06:56.736Z,44.53
2022-10-24T17:09:23.151Z,44.06
2022-10-24T17:11:49.594Z,44.46
2022-10-24T17:14:16.115Z,44.04
2022-10-24T17:16:43.355Z,44.09
2022-10-24T17:19:16.029Z,44.19
2022-10-24T17:21:43.220Z,43.99
2022-10-24T17:24:11.005Z,44.00
2022-10-24T17:26:37.566Z,43.16
2022-10-24T17:29:04.114Z,43.61
2022-10-24T17:31:30.666Z,43.86
2022-10-24T17:33:57.177Z,44.27
2022-10-24T17:36:25.558Z,44.41
2022-10-24T17:39:06.363Z,44.39
2022-10-24T17:41:39.230Z,44.37
2022-10-24T17:44:05.789Z,44.75
2022-10-24T17:46:32.382Z,44.39
2022-10-24T17:48:58.915Z,44.88
2022-10-24T17:51:26.547Z,44.46
2022-10-24T17:53:53.125Z,44.21
2022-10-24T17:56:21.993Z,44.62
2022-10-24T17:58:51.635Z,44.76
2022-10-24T18:01:18.332Z,44.68
2022-10-24T18:03:44.913Z,44.46
2022-10-24T18:06:12.705Z,44.79
2022-10-24T18:08:39.081Z,44.94
2022-10-24T18:11:06.082Z,44.90
2022-10-24T18:13:32.846Z,45.02
2022-10-24T18:15:59.334Z,45.31
2022-10-24T18:18:25.846Z,45.53
2022-10-24T18:20:52.273Z,45.63
2022-10-24T18:23:18.734Z,45.54
2022-10-24T18:25:45.118Z,45.58
2022-10-24T18:28:11.650Z,45.31
2022-10-24T18:30:38.175Z,45.64
2022-10-24T18:33:04.690Z,45.63
2022-10-24T18:35:33.194Z,45.56
2022-10-24T18:37:59.742Z,45.72
2022-10-24T18:40:26.319Z,45.45
2022-10-24T18:42:58.610Z,45.57
2022-10-24T18:45:26.384Z,45.50
2022-10-24T18:47:53.869Z,45.85
2022-10-24T18:50:23.830Z,45.82
2022-10-24T18:52:55.145Z,45.86
2022-10-24T18:55:21.845Z,45.59
2022-10-24T18:57:49.363Z,45.50
2022-10-24T19:00:18.097Z,45.53
2022-10-24T19:02:50.156Z,45.66
2022-10-24T19:05:16.693Z,46.08
2022-10-24T19:07:45.973Z,45.93
2022-10-24T19:10:18.861Z,45.70
2022-10-24T19:12:45.634Z,46.00
2022-10-24T19:15:12.849Z,46.14
2022-10-24T19:17:39.529Z,45.79
2022-10-24T19:20:06.498Z,46.21
2022-10-24T19:22:32.934Z,46.05
2022-10-24T19:24:59.459Z,45.94
2022-10-24T19:27:26.125Z,46.14
2022-10-24T19:29:52.554Z,46.27
2022-10-24T19:32:19.081Z,46.14
2022-10-24T19:34:45.486Z,46.08
2022-10-24T19:37:11.973Z,46.28
2022-10-24T19:39:38.506Z,46.21
2022-10-24T19:42:05.435Z,46.24
2022-10-24T19:44:31.894Z,46.35
2022-10-24T19:47:00.874Z,46.05
2022-10-24T19:49:27.285Z,46.36
2022-10-24T19:51:54.286Z,46.12
2022-10-24T19:54:20.730Z,46.24
2022-10-24T19:56:49.387Z,46.29
2022-10-24T19:59:16.734Z,46.12
2022-10-24T20:01:43.889Z,46.34
2022-10-24T20:04:10.386Z,46.50
2022-10-24T20:06:36.849Z,46.40
2022-10-24T20:09:03.726Z,46.73
2022-10-24T20:11:30.488Z,46.52
2022-10-24T20:13:56.899Z,46.79
2022-10-24T20:16:23.277Z,46.76
2022-10-24T20:18:49.750Z,46.50
2022-10-24T20:21:17.998Z,46.55
2022-10-24T20:23:48.709Z,46.65
2022-10-24T20:26:23.269Z,46.76
2022-10-24T20:28:51.057Z,46.76
2022-10-24T20:31:46.199Z,46.37
2022-10-24T20:34:12.687Z,46.77
2022-10-24T20:36:40.214Z,46.68
2022-10-24T20:39:07.785Z,46.80
2022-10-24T20:41:34.256Z,46.80
2022-10-24T20:44:01.014Z,46.41
2022-10-24T20:46:27.723Z,46.83
2022-10-24T20:48:54.165Z,46.80
2022-10-24T20:51:22.113Z,46.53
2022-10-24T20:53:48.946Z,46.77
2022-10-24T20:56:16.861Z,46.78
2022-10-24T20:58:43.939Z,46.71
2022-10-24T21:01:14.489Z,46.59
2022-10-24T21:03:41.122Z,46.56
2022-10-24T21:06:15.204Z,46.79
2022-10-24T21:08:41.674Z,46.62
2022-10-24T21:11:08.227Z,46.88
2022-10-24T21:13:34.646Z,47.06
2022-10-24T21:16:02.299Z,46.96
2022-10-24T21:18:28.819Z,47.20
2022-10-24T21:20:55.282Z,47.29
2022-10-24T21:23:21.702Z,47.05
2022-10-24T21:25:48.165Z,47.23
2022-10-24T21:28:14.547Z,47.42
2022-10-24T21:30:40.959Z,47.69
2022-10-24T21:33:10.700Z,47.61
2022-10-24T21:35:40.202Z,47.79
2022-10-24T21:38:06.723Z,47.78
2022-10-24T21:40:33.159Z,49.03
2022-10-24T21:43:00.104Z,49.28
2022-10-24T21:45:26.603Z,48.73
2022-10-24T21:47:53.051Z,48.12
2022-10-24T21:50:19.463Z,48.35
2022-10-24T21:52:46.104Z,49.02
2022-10-24T21:55:12.839Z,49.00
2022-10-24T21:57:39.280Z,48.22
2022-10-24T22:00:06.086Z,48.85
2022-10-24T22:02:32.563Z,49.94
2022-10-24T22:04:59.092Z,48.91
2022-10-24T22:10:11.916Z,48.91
2022-10-24T22:12:38.433Z,48.92
2022-10-24T22:15:05.057Z,50.34
2022-10-24T22:17:31.528Z,49.66
2022-10-24T22:19:57.896Z,49.77
2022-10-24T22:22:24.661Z,49.83
2022-10-24T22:24:51.092Z,50.05
2022-10-24T22:27:17.524Z,49.77
2022-10-24T22:29:43.897Z,50.24
2022-10-24T22:32:13.452Z,50.39
2022-10-24T22:34:40.099Z,50.45
2022-10-24T22:37:28.128Z,50.38
2022-10-24T22:39:54.697Z,49.86
2022-10-24T22:42:21.335Z,50.01
2022-10-24T22:44:48.403Z,50.44
2022-10-24T22:47:27.104Z,50.47
2022-10-24T22:50:13.901Z,51.48
2022-10-24T22:52:40.498Z,49.86
2022-10-24T22:55:16.157Z,50.47
2022-10-24T22:57:42.939Z,50.39
2022-10-24T23:00:09.825Z,50.14
2022-10-24T23:02:41.037Z,50.33
2022-10-24T23:05:26.405Z,50.43
2022-10-24T23:07:59.570Z,51.12
2022-10-24T23:10:26.035Z,50.49
2022-10-24T23:12:52.721Z,52.08
2022-10-24T23:15:20.120Z,50.78
2022-10-24T23:17:47.048Z,50.72
2022-10-24T23:20:13.910Z,50.87
2022-10-24T23:22:40.951Z,50.88
2022-10-24T23:25:09.124Z,51.52
